createdAt,value
2022-11-10T00:00:38.449Z,91.50
2022-11-10T00:03:08.195Z,91.61
2022-11-10T00:05:38.251Z,91.69
2022-11-10T00:08:07.437Z,91.84
2022-11-10T00:10:57.220Z,92.28
2022-11-10T00:13:27.207Z,91.45
2022-11-10T00:16:13.047Z,91.45
2022-11-10T00:18:41.312Z,91.17
2022-11-10T00:21:10.794Z,91.76
2022-11-10T00:23:39.114Z,91.85
2022-11-10T00:26:14.771Z,91.85
2022-11-10T00:28:43.119Z,92.28
2022-11-10T00:31:11.628Z,92.33
2022-11-10T00:33:41.078Z,91.68
2022-11-10T00:36:09.896Z,92.70
2022-11-10T00:38:38.148Z,92.38
2022-11-10T00:41:06.617Z,92.24
2022-11-10T00:43:36.399Z,92.47
2022-11-10T00:46:04.673Z,91.95
2022-11-10T00:48:32.910Z,92.32
2022-11-10T00:51:01.455Z,92.68
2022-11-10T00:53:29.617Z,91.89
2022-11-10T00:55:57.779Z,92.56
2022-11-10T00:58:26.084Z,91.49
2022-11-10T01:01:02.218Z,91.29
2022-11-10T01:03:30.731Z,92.78
2022-11-10T01:05:59.115Z,92.13
2022-11-10T01:08:27.259Z,92.09
2022-11-10T01:11:02.985Z,91.96
2022-11-10T01:13:31.193Z,91.44
2022-11-10T01:16:05.389Z,91.93
2022-11-10T01:18:33.822Z,92.15
2022-11-10T01:21:02.059Z,91.83
2022-11-10T01:23:30.475Z,91.91
2022-11-10T01:25:59.052Z,91.86
2022-11-10T01:28:27.207Z,91.89
2022-11-10T01:31:00.284Z,91.97
2022-11-10T01:33:28.965Z,91.96
2022-11-10T01:35:57.533Z,92.37
2022-11-10T01:38:28.358Z,92.05
2022-11-10T01:40:56.869Z,91.80
2022-11-10T01:43:25.574Z,92.63
2022-11-10T01:45:54.528Z,91.78
2022-11-10T01:48:31.567Z,91.71
2022-11-10T01:51:01.937Z,91.89
2022-11-10T01:53:32.315Z,91.91
2022-11-10T01:56:01.555Z,92.44
2022-11-10T01:58:32.978Z,91.79
2022-11-10T02:01:01.232Z,92.45
2022-11-10T02:03:35.007Z,91.26
2022-11-10T02:06:03.675Z,91.80
2022-11-10T02:08:33.391Z,91.92
2022-11-10T02:11:01.666Z,91.95
2022-11-10T02:13:30.053Z,91.67
2022-11-10T02:15:58.187Z,92.31
2022-11-10T02:18:26.516Z,91.82
2022-11-10T02:20:56.379Z,91.55
2022-11-10T02:23:49.025Z,91.48
2022-11-10T02:26:20.901Z,91.67
2022-11-10T02:28:49.146Z,91.49
2022-11-10T02:31:17.324Z,91.24
2022-11-10T02:33:45.560Z,91.09
2022-11-10T02:36:15.948Z,91.29
2022-11-10T02:38:44.207Z,91.35
2022-11-10T02:41:12.435Z,91.53
2022-11-10T02:43:41.169Z,91.64
2022-11-10T02:46:09.421Z,91.40
2022-11-10T02:48:37.691Z,91.43
2022-11-10T02:51:06.108Z,91.40
2022-11-10T02:53:35.737Z,91.57
2022-11-10T02:56:03.956Z,91.62
2022-11-10T02:58:32.166Z,91.61
2022-11-10T03:01:00.367Z,91.67
2022-11-10T03:03:28.609Z,91.45
2022-11-10T03:05:56.857Z,91.42
2022-11-10T03:08:26.815Z,91.54
2022-11-10T03:10:57.000Z,91.64
2022-11-10T03:13:32.115Z,91.70
2022-11-10T03:16:08.892Z,92.19
2022-11-10T03:18:37.137Z,91.93
2022-11-10T03:21:05.430Z,92.03
2022-11-10T03:23:34.539Z,91.79
2022-11-10T03:26:07.272Z,91.64
2022-11-10T03:28:35.681Z,92.04
2022-11-10T03:31:03.902Z,91.78
2022-11-10T03:33:32.069Z,91.44
2022-11-10T03:36:00.506Z,92.02
2022-11-10T03:38:28.888Z,91.72
2022-11-10T03:41:18.030Z,91.96
2022-11-10T03:43:46.987Z,91.61
2022-11-10T03:46:15.261Z,91.64
2022-11-10T03:48:45.359Z,91.13
2022-11-10T03:51:17.299Z,91.75
2022-11-10T03:53:45.552Z,91.74
2022-11-10T03:56:13.895Z,92.17
2022-11-10T03:58:42.514Z,91.73
2022-11-10T04:01:12.288Z,91.58
2022-11-10T04:03:40.482Z,91.83
2022-11-10T04:06:27.389Z,91.40
2022-11-10T04:09:01.741Z,91.38
2022-11-10T04:11:48.936Z,91.46
2022-11-10T04:14:34.349Z,92.56
2022-11-10T04:17:04.547Z,91.20
2022-11-10T04:19:32.789Z,91.25
2022-11-10T04:22:00.918Z,91.49
2022-11-10T04:24:29.281Z,91.28
2022-11-10T04:26:57.452Z,91.81
2022-11-10T04:29:25.599Z,91.41
2022-11-10T04:31:53.965Z,91.01
2022-11-10T04:34:23.533Z,90.99
2022-11-10T04:36:51.672Z,90.21
2022-11-10T04:39:20.539Z,90.61
2022-11-10T04:41:48.895Z,90.08
2022-11-10T04:44:17.146Z,90.65
2022-11-10T04:46:45.687Z,90.13
2022-11-10T04:49:13.832Z,90.21
2022-11-10T04:51:43.465Z,90.11
2022-11-10T04:54:12.901Z,89.98
2022-11-10T04:56:41.564Z,90.47
2022-11-10T04:59:09.944Z,90.59
2022-11-10T05:01:38.243Z,90.02
2022-11-10T05:04:06.795Z,89.57
2022-11-10T05:06:35.070Z,90.28
2022-11-10T05:09:04.935Z,89.95
2022-11-10T05:11:33.486Z,89.84
2022-11-10T05:14:01.735Z,89.21
2022-11-10T05:16:30.006Z,89.79
2022-11-10T05:18:58.442Z,89.87
2022-11-10T05:21:26.680Z,89.50
2022-11-10T05:23:54.975Z,89.69
2022-11-10T05:26:24.575Z,89.18
2022-11-10T05:28:52.931Z,89.44
2022-11-10T05:31:21.348Z,89.64
2022-11-10T05:33:49.515Z,89.83
2022-11-10T05:36:17.827Z,88.59
2022-11-10T05:38:46.149Z,89.28
2022-11-10T05:41:14.305Z,88.96
2022-11-10T05:43:44.340Z,88.98
2022-11-10T05:46:12.574Z,88.97
2022-11-10T05:48:40.718Z,88.88
2022-11-10T05:51:08.923Z,89.01
2022-11-10T05:53:37.202Z,89.18
2022-11-10T05:56:05.760Z,88.87
2022-11-10T05:58:34.448Z,89.08
2022-11-10T06:01:04.321Z,88.58
2022-11-10T06:03:32.710Z,90.86
2022-11-10T06:06:01.022Z,89.21
2022-11-10T06:08:29.445Z,89.73
2022-11-10T06:10:57.602Z,89.11
2022-11-10T06:13:25.979Z,89.73
2022-11-10T06:15:54.663Z,88.71
2022-11-10T06:18:24.328Z,88.10
2022-11-10T06:20:52.624Z,87.28
2022-11-10T06:23:21.465Z,87.59
2022-11-10T06:25:49.844Z,86.76
2022-11-10T06:28:18.148Z,87.15
2022-11-10T06:30:46.404Z,85.84
2022-11-10T06:33:14.695Z,85.41
2022-11-10T06:35:44.695Z,86.05
2022-11-10T06:38:13.450Z,85.73
2022-11-10T06:40:41.657Z,85.42
2022-11-10T06:43:09.958Z,85.98
2022-11-10T06:45:38.225Z,85.37
2022-11-10T06:48:08.644Z,85.68
2022-11-10T06:50:36.885Z,85.70
2022-11-10T06:53:06.701Z,85.85
2022-11-10T06:55:34.918Z,85.82
2022-11-10T06:58:03.169Z,87.29
2022-11-10T07:00:31.603Z,85.52
2022-11-10T07:03:01.209Z,85.66
2022-11-10T07:05:29.588Z,86.13
2022-11-10T07:07:57.974Z,85.63
2022-11-10T07:10:27.683Z,84.37
2022-11-10T07:12:59.496Z,84.80
2022-11-10T07:15:27.800Z,84.63
2022-11-10T07:17:55.960Z,85.15
2022-11-10T07:20:26.239Z,84.12
2022-11-10T07:22:58.642Z,84.07
2022-11-10T07:25:29.070Z,83.63
2022-11-10T07:27:57.392Z,83.93
2022-11-10T07:30:26.731Z,84.32
2022-11-10T07:33:02.266Z,84.06
2022-11-10T07:35:31.997Z,83.15
2022-11-10T07:38:03.152Z,83.62
2022-11-10T07:40:32.918Z,82.85
2022-11-10T07:43:01.407Z,82.19
2022-11-10T07:45:29.964Z,80.99
2022-11-10T07:48:01.564Z,80.13
2022-11-10T07:50:30.565Z,80.78
2022-11-10T07:53:06.333Z,79.98
2022-11-10T07:55:36.268Z,80.86
2022-11-10T07:58:04.735Z,80.46
2022-11-10T08:00:33.295Z,78.23
2022-11-10T08:03:05.951Z,78.86
2022-11-10T08:05:35.005Z,79.55
2022-11-10T08:08:03.257Z,76.33
2022-11-10T08:10:32.096Z,76.07
2022-11-10T08:13:02.879Z,74.86
2022-11-10T08:15:31.715Z,77.06
2022-11-10T08:18:00.886Z,77.95
2022-11-10T08:20:29.137Z,79.46
2022-11-10T08:23:01.382Z,79.58
2022-11-10T08:25:34.497Z,79.83
2022-11-10T08:28:07.283Z,81.37
2022-11-10T08:30:36.746Z,82.76
2022-11-10T08:33:06.551Z,81.16
2022-11-10T08:35:37.127Z,82.38
2022-11-10T08:38:10.189Z,81.41
2022-11-10T08:40:38.753Z,80.79
2022-11-10T08:43:09.081Z,82.41
2022-11-10T08:45:38.281Z,80.90
2022-11-10T08:48:08.064Z,81.18
2022-11-10T08:50:36.258Z,79.92
2022-11-10T08:53:05.653Z,80.63
2022-11-10T08:55:35.681Z,79.92
2022-11-10T08:58:05.107Z,79.45
2022-11-10T09:00:34.899Z,80.04
2022-11-10T09:03:07.829Z,80.95
2022-11-10T09:05:37.005Z,80.17
2022-11-10T09:08:05.563Z,80.46
2022-11-10T09:10:34.177Z,80.44
2022-11-10T09:13:02.966Z,81.32
2022-11-10T09:15:32.134Z,80.76
2022-11-10T09:18:02.791Z,80.48
2022-11-10T09:20:32.841Z,80.07
2022-11-10T09:23:06.438Z,80.13
2022-11-10T09:25:34.903Z,79.46
2022-11-10T09:28:03.239Z,79.56
2022-11-10T09:30:31.742Z,81.01
2022-11-10T09:33:02.210Z,80.42
2022-11-10T09:35:30.411Z,81.33
2022-11-10T09:37:58.726Z,80.01
2022-11-10T09:40:31.599Z,78.54
2022-11-10T09:43:02.113Z,79.31
2022-11-10T09:45:36.383Z,79.90
2022-11-10T09:48:11.675Z,79.54
2022-11-10T09:50:44.975Z,79.99
2022-11-10T09:53:15.422Z,79.10
2022-11-10T09:55:46.372Z,79.72
2022-11-10T09:58:15.130Z,79.09
2022-11-10T10:00:44.302Z,79.32
2022-11-10T10:03:17.052Z,79.56
2022-11-10T10:05:56.048Z,80.46
2022-11-10T10:08:30.396Z,79.60
2022-11-10T10:11:04.859Z,79.10
2022-11-10T10:13:55.645Z,78.95
2022-11-10T10:16:28.027Z,79.42
2022-11-10T10:19:02.044Z,78.43
2022-11-10T10:21:40.261Z,78.10
2022-11-10T10:24:19.847Z,79.01
2022-11-10T10:26:52.970Z,78.11
2022-11-10T10:29:23.744Z,77.36
2022-11-10T10:31:53.193Z,77.42
2022-11-10T10:34:25.623Z,75.57
2022-11-10T10:36:53.785Z,75.72
2022-11-10T10:39:27.510Z,76.96
2022-11-10T10:41:56.268Z,78.16
2022-11-10T10:44:24.485Z,77.76
2022-11-10T10:46:57.686Z,78.27
2022-11-10T10:49:30.242Z,78.54
2022-11-10T10:52:07.867Z,78.37
2022-11-10T10:54:38.186Z,78.09
2022-11-10T10:57:16.788Z,77.86
2022-11-10T10:59:45.182Z,78.25
2022-11-10T11:02:44.675Z,78.26
2022-11-10T11:05:17.778Z,78.05
2022-11-10T11:07:56.774Z,78.37
2022-11-10T11:10:26.487Z,78.57
2022-11-10T11:12:54.781Z,77.90
2022-11-10T11:15:27.003Z,78.57
2022-11-10T11:17:57.020Z,78.23
2022-11-10T11:20:32.742Z,79.05
2022-11-10T11:23:03.727Z,77.95
2022-11-10T11:25:35.816Z,78.73
2022-11-10T11:28:11.889Z,78.49
2022-11-10T11:30:48.836Z,78.48
2022-11-10T11:33:36.382Z,78.18
2022-11-10T11:36:14.461Z,78.05
2022-11-10T11:38:53.234Z,77.96
2022-11-10T11:41:30.400Z,78.49
2022-11-10T11:44:33.709Z,77.94
2022-11-10T11:47:20.126Z,78.04
2022-11-10T11:50:02.362Z,78.52
2022-11-10T11:52:36.423Z,78.49
2022-11-10T11:55:18.232Z,78.06
2022-11-10T11:57:56.046Z,80.57
2022-11-10T12:00:24.630Z,79.47
2022-11-10T12:03:25.509Z,78.58
2022-11-10T12:06:02.900Z,78.80
2022-11-10T12:08:37.437Z,78.46
2022-11-10T12:11:11.353Z,78.02
2022-11-10T12:13:48.411Z,78.54
2022-11-10T12:16:20.433Z,78.00
2022-11-10T12:18:54.018Z,78.55
2022-11-10T12:21:27.004Z,78.12
2022-11-10T12:24:10.479Z,78.30
2022-11-10T12:26:44.475Z,78.46
2022-11-10T12:29:19.691Z,78.53
2022-11-10T12:31:48.310Z,79.01
2022-11-10T12:34:30.286Z,79.11
2022-11-10T12:36:59.165Z,79.99
2022-11-10T12:39:38.830Z,78.94
2022-11-10T12:42:11.599Z,79.83
2022-11-10T12:44:44.318Z,79.70
2022-11-10T12:47:18.351Z,79.52
2022-11-10T12:49:53.787Z,79.71
2022-11-10T12:52:25.288Z,79.76
2022-11-10T12:54:55.313Z,79.40
2022-11-10T12:57:26.373Z,80.08
2022-11-10T12:59:57.207Z,80.58
2022-11-10T13:02:32.370Z,80.53
2022-11-10T13:05:13.041Z,80.26
2022-11-10T13:07:41.802Z,80.84
2022-11-10T13:10:26.606Z,81.19
2022-11-10T13:13:02.261Z,81.15
2022-11-10T13:15:47.944Z,81.03
2022-11-10T13:18:39.301Z,81.21
2022-11-10T13:21:07.668Z,81.40
2022-11-10T13:24:20.706Z,81.53
2022-11-10T13:26:51.529Z,81.56
2022-11-10T13:29:35.032Z,81.58
2022-11-10T13:32:22.101Z,81.77
2022-11-10T13:34:50.377Z,82.13
2022-11-10T13:37:50.759Z,82.15
2022-11-10T13:40:29.658Z,82.10
2022-11-10T13:43:23.937Z,82.33
2022-11-10T13:46:02.162Z,82.53
2022-11-10T13:48:42.525Z,82.47
2022-11-10T13:51:17.897Z,82.99
2022-11-10T13:53:54.237Z,82.97
2022-11-10T13:56:36.473Z,82.68
2022-11-10T13:59:18.064Z,83.21
2022-11-10T14:01:46.504Z,83.38
2022-11-10T14:04:43.121Z,83.17
2022-11-10T14:07:16.412Z,83.56
2022-11-10T14:09:47.908Z,83.89
2022-11-10T14:12:24.008Z,83.98
2022-11-10T14:14:56.628Z,84.00
2022-11-10T14:17:28.204Z,83.98
2022-11-10T14:19:56.560Z,83.88
2022-11-10T14:22:29.096Z,84.07
2022-11-10T14:25:02.320Z,84.00
2022-11-10T14:27:35.805Z,84.17
2022-11-10T14:30:12.540Z,84.62
2022-11-10T14:32:40.841Z,84.55
2022-11-10T14:35:19.680Z,83.99
2022-11-10T14:37:47.852Z,84.00
2022-11-10T14:40:19.629Z,84.45
2022-11-10T14:42:49.324Z,84.50
2022-11-10T14:45:20.261Z,84.37
2022-11-10T14:47:54.187Z,83.99
2022-11-10T14:50:24.621Z,84.49
2022-11-10T14:52:55.559Z,84.25
2022-11-10T14:55:26.209Z,84.45
2022-11-10T14:58:00.607Z,84.15
2022-11-10T15:00:29.314Z,84.76
2022-11-10T15:02:59.204Z,84.58
2022-11-10T15:05:27.662Z,84.78
2022-11-10T15:07:57.428Z,84.85
2022-11-10T15:10:27.742Z,84.83
2022-11-10T15:13:06.373Z,84.79
2022-11-10T15:15:34.620Z,85.09
2022-11-10T15:18:02.821Z,85.35
2022-11-10T15:20:34.088Z,85.35
2022-11-10T15:23:03.605Z,84.69
2022-11-10T15:25:39.244Z,86.84
2022-11-10T15:28:18.405Z,87.21
2022-11-10T15:30:53.087Z,84.67
2022-11-10T15:33:27.860Z,85.77
2022-11-10T15:35:57.588Z,84.86
2022-11-10T15:38:31.517Z,85.29
2022-11-10T15:41:12.392Z,86.68
2022-11-10T15:43:42.210Z,86.61
2022-11-10T15:46:18.208Z,85.65
2022-11-10T15:48:48.467Z,85.10
2022-11-10T15:51:22.822Z,84.95
2022-11-10T15:53:54.812Z,88.13
2022-11-10T15:56:24.988Z,91.51
2022-11-10T15:58:59.215Z,84.98
2022-11-10T16:01:30.671Z,85.08
2022-11-10T16:03:59.383Z,85.69
2022-11-10T16:06:30.323Z,89.98
2022-11-10T16:08:58.671Z,88.72
2022-11-10T16:11:26.985Z,85.37
2022-11-10T16:13:56.859Z,85.91
2022-11-10T16:16:25.232Z,87.32
2022-11-10T16:18:53.833Z,85.11
2022-11-10T16:21:23.749Z,85.60
2022-11-10T16:23:52.501Z,85.49
2022-11-10T16:26:22.428Z,87.98
2022-11-10T16:28:51.653Z,86.27
2022-11-10T16:31:22.687Z,85.34
2022-11-10T16:33:51.548Z,85.25
2022-11-10T16:36:25.282Z,87.39
2022-11-10T16:38:54.341Z,84.66
2022-11-10T16:41:22.973Z,84.96
2022-11-10T16:43:51.159Z,85.79
2022-11-10T16:46:22.778Z,84.73
2022-11-10T16:48:52.166Z,84.31
2022-11-10T16:51:20.449Z,85.06
2022-11-10T16:53:49.042Z,85.31
2022-11-10T16:56:20.712Z,85.12
2022-11-10T16:58:49.033Z,85.50
2022-11-10T17:01:22.363Z,85.78
2022-11-10T17:03:52.017Z,86.14
2022-11-10T17:06:21.664Z,86.49
2022-11-10T17:08:50.360Z,86.24
2022-11-10T17:11:18.880Z,86.15
2022-11-10T17:13:47.082Z,87.58
2022-11-10T17:16:20.474Z,87.38
2022-11-10T17:18:50.787Z,85.73
2022-11-10T17:21:19.668Z,85.88
2022-11-10T17:23:48.008Z,88.88
2022-11-10T17:26:18.095Z,86.95
2022-11-10T17:28:46.259Z,86.81
2022-11-10T17:31:15.921Z,88.36
2022-11-10T17:33:44.098Z,87.83
2022-11-10T17:36:17.892Z,87.13
2022-11-10T17:38:46.583Z,87.09
2022-11-10T17:41:16.791Z,87.29
2022-11-10T17:43:46.051Z,87.39
2022-11-10T17:46:15.174Z,88.33
2022-11-10T17:48:44.074Z,86.89
2022-11-10T17:51:15.485Z,87.89
2022-11-10T17:53:44.033Z,87.41
2022-11-10T17:56:12.167Z,87.54
2022-11-10T17:58:40.616Z,87.64
2022-11-10T18:01:17.137Z,87.55
2022-11-10T18:03:46.612Z,87.47
2022-11-10T18:06:17.017Z,87.23
2022-11-10T18:08:45.538Z,88.21
2022-11-10T18:11:15.911Z,87.88
2022-11-10T18:13:44.697Z,88.58
2022-11-10T18:16:15.043Z,87.80
2022-11-10T18:19:08.192Z,87.66
2022-11-10T18:21:37.858Z,87.64
2022-11-10T18:24:06.370Z,87.27
2022-11-10T18:26:34.658Z,86.89
2022-11-10T18:29:03.109Z,86.64
2022-11-10T18:31:31.380Z,86.81
2022-11-10T18:33:59.619Z,86.94
2022-11-10T18:36:27.754Z,86.71
2022-11-10T18:38:57.385Z,87.97
2022-11-10T18:41:42.845Z,86.59
2022-11-10T18:44:11.027Z,86.34
2022-11-10T18:46:39.430Z,85.92
2022-11-10T18:49:08.159Z,88.05
2022-11-10T18:51:36.493Z,88.19
2022-11-10T18:54:06.506Z,89.22
2022-11-10T18:56:34.874Z,87.76
2022-11-10T18:59:03.355Z,85.65
2022-11-10T19:01:31.694Z,85.06
2022-11-10T19:04:00.046Z,86.57
2022-11-10T19:06:28.219Z,85.53
2022-11-10T19:08:57.824Z,85.74
2022-11-10T19:11:27.713Z,85.30
2022-11-10T19:13:55.825Z,85.73
2022-11-10T19:16:24.021Z,85.77
2022-11-10T19:18:52.590Z,85.69
2022-11-10T19:21:22.740Z,87.05
2022-11-10T19:23:51.153Z,85.84
2022-11-10T19:26:22.902Z,86.29
2022-11-10T19:28:59.746Z,85.34
2022-11-10T19:31:28.792Z,85.37
2022-11-10T19:33:58.084Z,85.97
2022-11-10T19:36:27.586Z,87.38
2022-11-10T19:38:56.438Z,85.72
2022-11-10T19:41:26.484Z,84.96
2022-11-10T19:43:56.527Z,85.11
2022-11-10T19:46:27.644Z,85.04
2022-11-10T19:48:56.246Z,85.17
2022-11-10T19:51:25.849Z,84.89
2022-11-10T19:53:57.926Z,85.74
2022-11-10T19:56:31.433Z,86.37
2022-11-10T19:59:01.817Z,85.80
2022-11-10T20:01:32.417Z,85.07
2022-11-10T20:04:02.975Z,85.89
2022-11-10T20:06:31.297Z,85.52
2022-11-10T20:08:59.677Z,85.48
2022-11-10T20:11:28.230Z,85.53
2022-11-10T20:13:59.173Z,86.16
2022-11-10T20:16:28.815Z,85.89
2022-11-10T20:18:57.234Z,85.17
2022-11-10T20:21:25.496Z,85.35
2022-11-10T20:23:54.839Z,85.68
2022-11-10T20:26:24.319Z,84.92
2022-11-10T20:28:52.783Z,86.01
2022-11-10T20:31:23.849Z,85.51
2022-11-10T20:33:55.700Z,84.67
2022-11-10T20:36:26.214Z,85.55
2022-11-10T20:38:57.807Z,86.31
2022-11-10T20:41:29.283Z,85.71
2022-11-10T20:43:57.912Z,85.51
2022-11-10T20:46:53.369Z,85.45
2022-11-10T20:49:16.712Z,85.19
2022-11-10T20:51:45.015Z,85.36
2022-11-10T20:54:15.146Z,85.09
2022-11-10T20:56:43.500Z,87.33
2022-11-10T20:59:12.222Z,85.49
2022-11-10T21:01:40.649Z,85.53
2022-11-10T21:04:09.118Z,84.99
2022-11-10T21:06:38.789Z,85.69
2022-11-10T21:09:07.896Z,86.85
2022-11-10T21:11:53.530Z,86.35
2022-11-10T21:14:21.748Z,85.46
2022-11-10T21:16:49.896Z,86.14
2022-11-10T21:19:18.419Z,85.75
2022-11-10T21:21:47.996Z,85.67
2022-11-10T21:24:16.258Z,86.20
2022-11-10T21:26:44.589Z,85.57
2022-11-10T21:29:12.896Z,85.11
2022-11-10T21:31:41.948Z,85.53
2022-11-10T21:34:11.105Z,85.02
2022-11-10T21:36:39.526Z,87.68
2022-11-10T21:39:09.907Z,85.01
2022-11-10T21:41:38.335Z,84.93
2022-11-10T21:44:06.789Z,85.23
2022-11-10T21:46:35.003Z,85.62
2022-11-10T21:49:07.329Z,85.10
2022-11-10T21:51:36.135Z,85.64
2022-11-10T21:54:04.481Z,85.37
2022-11-10T21:56:34.051Z,85.42
2022-11-10T21:59:02.365Z,84.89
2022-11-10T22:01:32.460Z,85.15
2022-11-10T22:04:00.756Z,86.19
2022-11-10T22:06:49.153Z,85.50
2022-11-10T22:09:38.007Z,85.01
2022-11-10T22:12:27.651Z,85.25
2022-11-10T22:15:13.188Z,85.64
2022-11-10T22:17:58.760Z,86.12
2022-11-10T22:20:26.900Z,85.16
2022-11-10T22:22:55.207Z,85.45
2022-11-10T22:25:23.575Z,85.29
2022-11-10T22:27:53.181Z,86.72
2022-11-10T22:30:21.321Z,85.60
2022-11-10T22:32:49.665Z,85.65
2022-11-10T22:35:31.654Z,86.04
2022-11-10T22:38:04.887Z,86.43
2022-11-10T22:40:50.270Z,85.64
2022-11-10T22:43:37.435Z,86.57
2022-11-10T22:46:05.712Z,85.61
2022-11-10T22:48:34.034Z,85.10
2022-11-10T22:51:02.384Z,85.51
2022-11-10T22:53:31.315Z,85.97
2022-11-10T22:56:01.631Z,86.43
2022-11-10T22:58:31.338Z,86.55
2022-11-10T23:01:06.096Z,86.24
2022-11-10T23:03:34.892Z,86.35
2022-11-10T23:06:03.482Z,87.30
2022-11-10T23:08:32.170Z,87.15
2022-11-10T23:11:01.536Z,87.89
2022-11-10T23:13:31.449Z,87.74
2022-11-10T23:16:02.327Z,87.84
2022-11-10T23:18:30.802Z,87.19
2022-11-10T23:20:59.927Z,87.11
2022-11-10T23:23:28.384Z,87.49
2022-11-10T23:25:58.169Z,87.69
2022-11-10T23:28:28.149Z,87.84
2022-11-10T23:31:03.657Z,87.76
2022-11-10T23:33:33.191Z,87.60
2022-11-10T23:36:01.808Z,87.48
2022-11-10T23:38:31.600Z,87.80
2022-11-10T23:41:00.679Z,88.51
2022-11-10T23:43:29.326Z,87.88
2022-11-10T23:46:07.712Z,87.70
2022-11-10T23:48:36.339Z,88.16
2022-11-10T23:51:05.150Z,88.15
2022-11-10T23:53:35.326Z,88.24
2022-11-10T23:56:05.883Z,88.47
2022-11-10T23:58:34.372Z,87.11
